Terminal Aerodrome Forecast
Issued by NWS

Home | Current Version | Previous Version | Text Only | Print | Product List | Glossary Off
Versions: 1 2 3 4 5 6 7 8 9 10 11 12 13 14 15 16 17 18 19 20 21 22 23 24 25 26 27 28 29 30 31 32 33 34 35 36 37 38 39 40 41 42 43 44 45 46 47 48 49

667
FTUS43 KLOT 180324 AAA
TAFGYY
TAF AMD
KGYY 180324Z 1803/1824 26012KT P6SM OVC015
      TEMPO 1805/1807 SCT015
     FM180700 26006KT 6SM BCFG SKC
     FM180900 00000KT 3SM BR BCFG SKC
     FM181400 16010KT P6SM SCT250
     FM181800 17015G25KT P6SM SCT250=

USA.gov is the U.S. government's official web portal to all federal, state and local government web resources and services.